sensor_id;sensor_type;location;lat;lon;timestamp;P1;durP1;ratioP1;P2;durP2;ratioP2
21777;SDS011;11050;52.222;20.916;2023-08-08T00:01:20;7.20;;;2.50;;
21777;SDS011;11050;52.222;20.916;2023-08-08T00:03:46;3.35;;;2.38;;
21777;SDS011;11050;52.222;20.916;2023-08-08T00:06:12;7.53;;;2.22;;
21777;SDS011;11050;52.222;20.916;2023-08-08T00:08:38;7.47;;;2.90;;
21777;SDS011;11050;52.222;20.916;2023-08-08T00:11:03;4.30;;;2.22;;
21777;SDS011;11050;52.222;20.916;2023-08-08T00:13:29;3.65;;;2.20;;
21777;SDS011;11050;52.222;20.916;2023-08-08T00:15:55;4.93;;;2.28;;
21777;SDS011;11050;52.222;20.916;2023-08-08T00:18:21;6.30;;;2.40;;
21777;SDS011;11050;52.222;20.916;2023-08-08T00:20:46;8.10;;;2.55;;
21777;SDS011;11050;52.222;20.916;2023-08-08T00:23:12;5.00;;;2.25;;
21777;SDS011;11050;52.222;20.916;2023-08-08T00:25:38;3.00;;;1.95;;
21777;SDS011;11050;52.222;20.916;2023-08-08T00:28:04;6.95;;;2.20;;
21777;SDS011;11050;52.222;20.916;2023-08-08T00:30:30;7.35;;;2.17;;
21777;SDS011;11050;52.222;20.916;2023-08-08T00:32:56;4.20;;;2.55;;
21777;SDS011;11050;52.222;20.916;2023-08-08T00:35:21;10.10;;;2.50;;
21777;SDS011;11050;52.222;20.916;2023-08-08T00:37:47;6.25;;;2.22;;
21777;SDS011;11050;52.222;20.916;2023-08-08T00:40:14;4.07;;;2.10;;
21777;SDS011;11050;52.222;20.916;2023-08-08T00:42:39;5.70;;;2.25;;
21777;SDS011;11050;52.222;20.916;2023-08-08T00:45:06;3.85;;;2.15;;
21777;SDS011;11050;52.222;20.916;2023-08-08T00:47:32;7.00;;;2.60;;
21777;SDS011;11050;52.222;20.916;2023-08-08T00:50:02;6.25;;;2.40;;
21777;SDS011;11050;52.222;20.916;2023-08-08T00:52:30;6.10;;;2.47;;
21777;SDS011;11050;52.222;20.916;2023-08-08T00:54:56;3.67;;;2.00;;
21777;SDS011;11050;52.222;20.916;2023-08-08T00:57:24;6.78;;;2.03;;
21777;SDS011;11050;52.222;20.916;2023-08-08T00:59:51;4.03;;;2.13;;
21777;SDS011;11050;52.222;20.916;2023-08-08T01:02:16;3.17;;;2.22;;
21777;SDS011;11050;52.222;20.916;2023-08-08T01:04:42;6.28;;;2.50;;
21777;SDS011;11050;52.222;20.916;2023-08-08T01:07:17;4.85;;;2.17;;
21777;SDS011;11050;52.222;20.916;2023-08-08T01:10:26;7.93;;;2.20;;
21777;SDS011;11050;52.222;20.916;2023-08-08T01:12:45;5.20;;;2.25;;
21777;SDS011;11050;52.222;20.916;2023-08-08T01:15:18;5.10;;;2.45;;
21777;SDS011;11050;52.222;20.916;2023-08-08T01:17:45;7.30;;;2.20;;
21777;SDS011;11050;52.222;20.916;2023-08-08T01:20:12;5.25;;;2.30;;
21777;SDS011;11050;52.222;20.916;2023-08-08T01:22:50;4.07;;;2.15;;
21777;SDS011;11050;52.222;20.916;2023-08-08T01:25:36;4.10;;;2.08;;
21777;SDS011;11050;52.222;20.916;2023-08-08T01:28:05;5.35;;;2.60;;
21777;SDS011;11050;52.222;20.916;2023-08-08T01:30:32;8.82;;;2.15;;
21777;SDS011;11050;52.222;20.916;2023-08-08T01:32:58;7.55;;;2.40;;
21777;SDS011;11050;52.222;20.916;2023-08-08T01:35:25;10.63;;;2.40;;
21777;SDS011;11050;52.222;20.916;2023-08-08T01:37:59;6.18;;;2.65;;
21777;SDS011;11050;52.222;20.916;2023-08-08T01:40:38;8.23;;;2.15;;
21777;SDS011;11050;52.222;20.916;2023-08-08T01:43:06;3.95;;;2.00;;
21777;SDS011;11050;52.222;20.916;2023-08-08T01:45:33;5.82;;;2.30;;
21777;SDS011;11050;52.222;20.916;2023-08-08T01:48:05;7.32;;;1.98;;
21777;SDS011;11050;52.222;20.916;2023-08-08T01:50:33;8.75;;;2.60;;
21777;SDS011;11050;52.222;20.916;2023-08-08T01:52:59;3.78;;;1.90;;
21777;SDS011;11050;52.222;20.916;2023-08-08T01:55:25;7.57;;;2.40;;
21777;SDS011;11050;52.222;20.916;2023-08-08T01:57:51;5.45;;;1.88;;
21777;SDS011;11050;52.222;20.916;2023-08-08T02:00:17;6.30;;;2.22;;
21777;SDS011;11050;52.222;20.916;2023-08-08T02:02:43;8.35;;;2.15;;
21777;SDS011;11050;52.222;20.916;2023-08-08T02:05:09;4.32;;;2.20;;
21777;SDS011;11050;52.222;20.916;2023-08-08T02:07:35;4.43;;;2.13;;
21777;SDS011;11050;52.222;20.916;2023-08-08T02:10:00;6.68;;;2.40;;
21777;SDS011;11050;52.222;20.916;2023-08-08T02:12:26;9.25;;;2.60;;
21777;SDS011;11050;52.222;20.916;2023-08-08T02:14:55;8.10;;;2.08;;
21777;SDS011;11050;52.222;20.916;2023-08-08T02:17:21;7.25;;;2.50;;
21777;SDS011;11050;52.222;20.916;2023-08-08T02:19:47;4.13;;;1.95;;
21777;SDS011;11050;52.222;20.916;2023-08-08T02:22:13;4.10;;;2.30;;
21777;SDS011;11050;52.222;20.916;2023-08-08T02:24:39;7.28;;;2.38;;
21777;SDS011;11050;52.222;20.916;2023-08-08T02:27:04;5.30;;;2.10;;
21777;SDS011;11050;52.222;20.916;2023-08-08T02:29:30;6.60;;;2.45;;
21777;SDS011;11050;52.222;20.916;2023-08-08T02:31:56;4.30;;;2.05;;
21777;SDS011;11050;52.222;20.916;2023-08-08T02:34:22;7.15;;;2.33;;
21777;SDS011;11050;52.222;20.916;2023-08-08T02:36:48;4.70;;;2.47;;
21777;SDS011;11050;52.222;20.916;2023-08-08T02:39:14;2.70;;;1.85;;
21777;SDS011;11050;52.222;20.916;2023-08-08T02:41:40;7.88;;;2.28;;
21777;SDS011;11050;52.222;20.916;2023-08-08T02:44:07;5.90;;;2.72;;
21777;SDS011;11050;52.222;20.916;2023-08-08T02:46:33;13.88;;;2.58;;
21777;SDS011;11050;52.222;20.916;2023-08-08T02:48:59;6.63;;;2.58;;
21777;SDS011;11050;52.222;20.916;2023-08-08T02:51:24;6.30;;;2.45;;
21777;SDS011;11050;52.222;20.916;2023-08-08T02:53:50;5.90;;;2.60;;
21777;SDS011;11050;52.222;20.916;2023-08-08T02:56:16;3.65;;;2.30;;
21777;SDS011;11050;52.222;20.916;2023-08-08T02:58:42;6.93;;;2.80;;
21777;SDS011;11050;52.222;20.916;2023-08-08T03:01:07;7.65;;;2.58;;
21777;SDS011;11050;52.222;20.916;2023-08-08T03:03:33;6.90;;;2.40;;
21777;SDS011;11050;52.222;20.916;2023-08-08T03:06:00;5.20;;;2.47;;
21777;SDS011;11050;52.222;20.916;2023-08-08T03:08:26;8.38;;;2.83;;
21777;SDS011;11050;52.222;20.916;2023-08-08T03:10:53;4.25;;;2.15;;
21777;SDS011;11050;52.222;20.916;2023-08-08T03:13:18;7.85;;;2.53;;
21777;SDS011;11050;52.222;20.916;2023-08-08T03:15:45;5.60;;;2.10;;
21777;SDS011;11050;52.222;20.916;2023-08-08T03:18:10;6.18;;;2.47;;
21777;SDS011;11050;52.222;20.916;2023-08-08T03:20:36;5.10;;;2.00;;
21777;SDS011;11050;52.222;20.916;2023-08-08T03:23:02;5.78;;;2.30;;
21777;SDS011;11050;52.222;20.916;2023-08-08T03:25:28;3.95;;;2.03;;
21777;SDS011;11050;52.222;20.916;2023-08-08T03:27:53;5.45;;;2.40;;
21777;SDS011;11050;52.222;20.916;2023-08-08T03:30:19;5.13;;;2.08;;
21777;SDS011;11050;52.222;20.916;2023-08-08T03:32:45;7.00;;;2.03;;
21777;SDS011;11050;52.222;20.916;2023-08-08T03:35:11;4.90;;;1.80;;
21777;SDS011;11050;52.222;20.916;2023-08-08T03:37:37;4.43;;;1.83;;
21777;SDS011;11050;52.222;20.916;2023-08-08T03:40:03;7.28;;;2.63;;
21777;SDS011;11050;52.222;20.916;2023-08-08T03:42:29;7.57;;;2.22;;
21777;SDS011;11050;52.222;20.916;2023-08-08T03:44:55;7.88;;;2.67;;
21777;SDS011;11050;52.222;20.916;2023-08-08T03:47:21;5.90;;;2.05;;
21777;SDS011;11050;52.222;20.916;2023-08-08T03:49:47;4.80;;;1.92;;
21777;SDS011;11050;52.222;20.916;2023-08-08T03:52:13;7.25;;;2.33;;
21777;SDS011;11050;52.222;20.916;2023-08-08T03:54:38;7.15;;;3.20;;
21777;SDS011;11050;52.222;20.916;2023-08-08T03:57:04;5.07;;;2.33;;
21777;SDS011;11050;52.222;20.916;2023-08-08T03:59:30;6.97;;;2.30;;
21777;SDS011;11050;52.222;20.916;2023-08-08T04:01:56;6.32;;;2.25;;
21777;SDS011;11050;52.222;20.916;2023-08-08T04:04:22;11.70;;;2.63;;
21777;SDS011;11050;52.222;20.916;2023-08-08T04:06:47;9.95;;;2.30;;
21777;SDS011;11050;52.222;20.916;2023-08-08T04:09:13;5.40;;;2.47;;
21777;SDS011;11050;52.222;20.916;2023-08-08T04:11:39;5.60;;;2.55;;
21777;SDS011;11050;52.222;20.916;2023-08-08T04:14:04;6.53;;;2.15;;
21777;SDS011;11050;52.222;20.916;2023-08-08T04:16:30;8.43;;;2.50;;
21777;SDS011;11050;52.222;20.916;2023-08-08T04:18:56;4.55;;;2.15;;
21777;SDS011;11050;52.222;20.916;2023-08-08T04:21:21;5.78;;;2.10;;
21777;SDS011;11050;52.222;20.916;2023-08-08T04:23:48;7.97;;;2.03;;
21777;SDS011;11050;52.222;20.916;2023-08-08T04:26:14;6.47;;;2.33;;
21777;SDS011;11050;52.222;20.916;2023-08-08T04:28:40;6.97;;;2.25;;
21777;SDS011;11050;52.222;20.916;2023-08-08T04:31:05;7.28;;;2.03;;
21777;SDS011;11050;52.222;20.916;2023-08-08T04:33:31;8.77;;;2.60;;
21777;SDS011;11050;52.222;20.916;2023-08-08T04:35:57;6.57;;;2.30;;
21777;SDS011;11050;52.222;20.916;2023-08-08T04:38:23;5.28;;;2.40;;
21777;SDS011;11050;52.222;20.916;2023-08-08T04:40:49;6.63;;;2.80;;
21777;SDS011;11050;52.222;20.916;2023-08-08T04:43:15;4.18;;;2.00;;
21777;SDS011;11050;52.222;20.916;2023-08-08T04:45:41;4.93;;;2.35;;
21777;SDS011;11050;52.222;20.916;2023-08-08T04:48:07;7.00;;;2.20;;
21777;SDS011;11050;52.222;20.916;2023-08-08T04:50:32;9.25;;;2.25;;
21777;SDS011;11050;52.222;20.916;2023-08-08T04:52:58;10.25;;;2.70;;
21777;SDS011;11050;52.222;20.916;2023-08-08T04:55:24;5.10;;;2.05;;
21777;SDS011;11050;52.222;20.916;2023-08-08T04:57:50;8.18;;;1.98;;
21777;SDS011;11050;52.222;20.916;2023-08-08T05:00:16;4.22;;;1.98;;
21777;SDS011;11050;52.222;20.916;2023-08-08T05:02:42;8.02;;;2.17;;
21777;SDS011;11050;52.222;20.916;2023-08-08T05:05:08;4.95;;;2.00;;
21777;SDS011;11050;52.222;20.916;2023-08-08T05:07:34;7.45;;;2.08;;
21777;SDS011;11050;52.222;20.916;2023-08-08T05:10:02;6.80;;;2.20;;
21777;SDS011;11050;52.222;20.916;2023-08-08T05:12:29;6.93;;;2.20;;
21777;SDS011;11050;52.222;20.916;2023-08-08T05:14:54;7.50;;;2.40;;
21777;SDS011;11050;52.222;20.916;2023-08-08T05:17:20;8.30;;;2.40;;
21777;SDS011;11050;52.222;20.916;2023-08-08T05:19:46;5.53;;;2.05;;
21777;SDS011;11050;52.222;20.916;2023-08-08T05:22:12;6.30;;;2.55;;
21777;SDS011;11050;52.222;20.916;2023-08-08T05:24:37;11.07;;;2.38;;
21777;SDS011;11050;52.222;20.916;2023-08-08T05:27:03;10.02;;;2.67;;
21777;SDS011;11050;52.222;20.916;2023-08-08T05:29:29;5.45;;;1.85;;
21777;SDS011;11050;52.222;20.916;2023-08-08T05:31:55;15.55;;;2.53;;
21777;SDS011;11050;52.222;20.916;2023-08-08T05:34:22;5.18;;;2.35;;
21777;SDS011;11050;52.222;20.916;2023-08-08T05:36:49;21.77;;;2.90;;
21777;SDS011;11050;52.222;20.916;2023-08-08T05:39:15;14.75;;;2.72;;
21777;SDS011;11050;52.222;20.916;2023-08-08T05:41:40;7.13;;;2.65;;
21777;SDS011;11050;52.222;20.916;2023-08-08T05:44:06;5.90;;;2.20;;
21777;SDS011;11050;52.222;20.916;2023-08-08T05:46:32;5.72;;;1.92;;
21777;SDS011;11050;52.222;20.916;2023-08-08T05:48:58;7.82;;;2.30;;
21777;SDS011;11050;52.222;20.916;2023-08-08T05:51:23;5.55;;;2.35;;
21777;SDS011;11050;52.222;20.916;2023-08-08T05:53:49;7.45;;;2.08;;
21777;SDS011;11050;52.222;20.916;2023-08-08T05:56:15;8.52;;;2.10;;
21777;SDS011;11050;52.222;20.916;2023-08-08T05:58:40;7.63;;;2.67;;
21777;SDS011;11050;52.222;20.916;2023-08-08T06:01:06;5.65;;;1.88;;
21777;SDS011;11050;52.222;20.916;2023-08-08T06:03:34;7.85;;;2.50;;
21777;SDS011;11050;52.222;20.916;2023-08-08T06:06:02;10.00;;;2.58;;
21777;SDS011;11050;52.222;20.916;2023-08-08T06:08:29;7.22;;;2.40;;
21777;SDS011;11050;52.222;20.916;2023-08-08T06:10:55;7.93;;;2.05;;
21777;SDS011;11050;52.222;20.916;2023-08-08T06:13:20;6.50;;;2.35;;
21777;SDS011;11050;52.222;20.916;2023-08-08T06:15:46;8.38;;;2.20;;
21777;SDS011;11050;52.222;20.916;2023-08-08T06:18:12;8.95;;;2.35;;
21777;SDS011;11050;52.222;20.916;2023-08-08T06:20:38;7.22;;;2.70;;
21777;SDS011;11050;52.222;20.916;2023-08-08T06:23:04;5.22;;;1.92;;
21777;SDS011;11050;52.222;20.916;2023-08-08T06:25:29;10.20;;;2.90;;
21777;SDS011;11050;52.222;20.916;2023-08-08T06:27:55;3.28;;;1.92;;
21777;SDS011;11050;52.222;20.916;2023-08-08T06:30:21;11.07;;;2.67;;
21777;SDS011;11050;52.222;20.916;2023-08-08T06:32:47;6.90;;;2.28;;
21777;SDS011;11050;52.222;20.916;2023-08-08T06:35:12;6.82;;;2.30;;
21777;SDS011;11050;52.222;20.916;2023-08-08T06:37:41;6.95;;;2.58;;
21777;SDS011;11050;52.222;20.916;2023-08-08T06:40:08;6.68;;;2.25;;
21777;SDS011;11050;52.222;20.916;2023-08-08T06:42:35;7.40;;;2.70;;
21777;SDS011;11050;52.222;20.916;2023-08-08T06:45:01;5.10;;;2.20;;
21777;SDS011;11050;52.222;20.916;2023-08-08T06:47:27;8.32;;;2.28;;
21777;SDS011;11050;52.222;20.916;2023-08-08T06:49:53;6.22;;;3.10;;
21777;SDS011;11050;52.222;20.916;2023-08-08T06:52:20;7.53;;;2.30;;
21777;SDS011;11050;52.222;20.916;2023-08-08T06:54:47;4.82;;;2.20;;
21777;SDS011;11050;52.222;20.916;2023-08-08T06:57:13;6.47;;;2.60;;
21777;SDS011;11050;52.222;20.916;2023-08-08T06:59:38;8.80;;;2.20;;
21777;SDS011;11050;52.222;20.916;2023-08-08T07:02:04;6.45;;;2.38;;
21777;SDS011;11050;52.222;20.916;2023-08-08T07:04:30;4.25;;;2.08;;
21777;SDS011;11050;52.222;20.916;2023-08-08T07:06:56;5.00;;;2.28;;
21777;SDS011;11050;52.222;20.916;2023-08-08T07:09:22;5.80;;;2.13;;
21777;SDS011;11050;52.222;20.916;2023-08-08T07:11:48;8.35;;;2.30;;
21777;SDS011;11050;52.222;20.916;2023-08-08T07:14:14;5.75;;;2.20;;
21777;SDS011;11050;52.222;20.916;2023-08-08T07:16:39;5.20;;;2.15;;
21777;SDS011;11050;52.222;20.916;2023-08-08T07:19:05;6.07;;;2.53;;
21777;SDS011;11050;52.222;20.916;2023-08-08T07:21:31;6.00;;;2.33;;
21777;SDS011;11050;52.222;20.916;2023-08-08T07:23:57;4.13;;;1.95;;
21777;SDS011;11050;52.222;20.916;2023-08-08T07:26:22;6.85;;;2.20;;
21777;SDS011;11050;52.222;20.916;2023-08-08T07:28:48;4.18;;;2.20;;
21777;SDS011;11050;52.222;20.916;2023-08-08T07:31:14;9.55;;;2.58;;
21777;SDS011;11050;52.222;20.916;2023-08-08T07:33:40;5.68;;;2.15;;
21777;SDS011;11050;52.222;20.916;2023-08-08T07:36:05;6.70;;;2.00;;
21777;SDS011;11050;52.222;20.916;2023-08-08T07:38:31;6.22;;;2.20;;
21777;SDS011;11050;52.222;20.916;2023-08-08T07:40:58;5.47;;;2.28;;
21777;SDS011;11050;52.222;20.916;2023-08-08T07:43:24;6.55;;;1.85;;
21777;SDS011;11050;52.222;20.916;2023-08-08T07:45:49;10.18;;;2.33;;
21777;SDS011;11050;52.222;20.916;2023-08-08T07:48:15;5.30;;;2.25;;
21777;SDS011;11050;52.222;20.916;2023-08-08T07:50:41;4.40;;;1.75;;
21777;SDS011;11050;52.222;20.916;2023-08-08T07:53:06;3.80;;;1.85;;
21777;SDS011;11050;52.222;20.916;2023-08-08T07:55:32;8.40;;;2.13;;
21777;SDS011;11050;52.222;20.916;2023-08-08T07:57:58;7.90;;;2.30;;
21777;SDS011;11050;52.222;20.916;2023-08-08T08:00:24;8.20;;;2.38;;
21777;SDS011;11050;52.222;20.916;2023-08-08T08:02:49;6.30;;;2.22;;
21777;SDS011;11050;52.222;20.916;2023-08-08T08:05:15;8.15;;;2.20;;
21777;SDS011;11050;52.222;20.916;2023-08-08T08:07:41;5.00;;;1.83;;
21777;SDS011;11050;52.222;20.916;2023-08-08T08:10:09;4.90;;;1.77;;
21777;SDS011;11050;52.222;20.916;2023-08-08T08:12:38;10.07;;;1.90;;
21777;SDS011;11050;52.222;20.916;2023-08-08T08:15:06;5.82;;;2.13;;
21777;SDS011;11050;52.222;20.916;2023-08-08T08:17:33;6.07;;;2.20;;
21777;SDS011;11050;52.222;20.916;2023-08-08T08:19:59;5.47;;;1.90;;
21777;SDS011;11050;52.222;20.916;2023-08-08T08:22:25;5.57;;;2.33;;
21777;SDS011;11050;52.222;20.916;2023-08-08T08:24:50;6.68;;;2.17;;
21777;SDS011;11050;52.222;20.916;2023-08-08T08:27:17;5.60;;;2.10;;
21777;SDS011;11050;52.222;20.916;2023-08-08T08:29:43;4.30;;;1.95;;
21777;SDS011;11050;52.222;20.916;2023-08-08T08:32:08;7.03;;;2.10;;
21777;SDS011;11050;52.222;20.916;2023-08-08T08:34:34;8.13;;;2.03;;
21777;SDS011;11050;52.222;20.916;2023-08-08T08:37:00;3.28;;;1.90;;
21777;SDS011;11050;52.222;20.916;2023-08-08T08:39:26;4.50;;;2.05;;
21777;SDS011;11050;52.222;20.916;2023-08-08T08:41:54;4.97;;;1.95;;
21777;SDS011;11050;52.222;20.916;2023-08-08T08:44:30;5.55;;;1.73;;
21777;SDS011;11050;52.222;20.916;2023-08-08T08:46:58;14.85;;;2.53;;
21777;SDS011;11050;52.222;20.916;2023-08-08T08:49:31;4.22;;;1.80;;
21777;SDS011;11050;52.222;20.916;2023-08-08T08:52:00;4.32;;;2.00;;
21777;SDS011;11050;52.222;20.916;2023-08-08T08:54:26;5.40;;;2.30;;
21777;SDS011;11050;52.222;20.916;2023-08-08T08:56:55;8.00;;;2.03;;
21777;SDS011;11050;52.222;20.916;2023-08-08T08:59:22;6.05;;;1.60;;
21777;SDS011;11050;52.222;20.916;2023-08-08T09:01:49;4.75;;;1.65;;
21777;SDS011;11050;52.222;20.916;2023-08-08T09:04:17;7.05;;;2.33;;
21777;SDS011;11050;52.222;20.916;2023-08-08T09:06:46;3.85;;;1.73;;
21777;SDS011;11050;52.222;20.916;2023-08-08T09:09:13;7.53;;;2.33;;
21777;SDS011;11050;52.222;20.916;2023-08-08T09:11:42;5.45;;;2.42;;
21777;SDS011;11050;52.222;20.916;2023-08-08T09:14:20;6.75;;;1.85;;
21777;SDS011;11050;52.222;20.916;2023-08-08T09:16:54;5.53;;;1.92;;
21777;SDS011;11050;52.222;20.916;2023-08-08T09:19:21;3.85;;;1.50;;
21777;SDS011;11050;52.222;20.916;2023-08-08T09:21:49;3.88;;;1.73;;
21777;SDS011;11050;52.222;20.916;2023-08-08T09:24:17;5.45;;;1.83;;
21777;SDS011;11050;52.222;20.916;2023-08-08T09:26:44;5.63;;;1.67;;
21777;SDS011;11050;52.222;20.916;2023-08-08T09:29:10;4.53;;;1.92;;
21777;SDS011;11050;52.222;20.916;2023-08-08T09:31:39;12.82;;;2.45;;
21777;SDS011;11050;52.222;20.916;2023-08-08T09:34:05;5.50;;;1.40;;
21777;SDS011;11050;52.222;20.916;2023-08-08T09:36:31;8.50;;;1.63;;
21777;SDS011;11050;52.222;20.916;2023-08-08T09:38:58;9.20;;;1.75;;
21777;SDS011;11050;52.222;20.916;2023-08-08T09:41:24;7.63;;;1.92;;
21777;SDS011;11050;52.222;20.916;2023-08-08T09:43:51;5.35;;;1.85;;
21777;SDS011;11050;52.222;20.916;2023-08-08T09:46:19;6.22;;;1.73;;
21777;SDS011;11050;52.222;20.916;2023-08-08T09:48:46;5.78;;;1.67;;
21777;SDS011;11050;52.222;20.916;2023-08-08T09:51:12;4.97;;;1.85;;
21777;SDS011;11050;52.222;20.916;2023-08-08T09:53:39;4.93;;;1.90;;
21777;SDS011;11050;52.222;20.916;2023-08-08T09:56:06;6.57;;;1.50;;
21777;SDS011;11050;52.222;20.916;2023-08-08T09:58:33;5.32;;;1.50;;
21777;SDS011;11050;52.222;20.916;2023-08-08T10:00:59;2.80;;;1.67;;
21777;SDS011;11050;52.222;20.916;2023-08-08T10:03:25;4.18;;;1.65;;
21777;SDS011;11050;52.222;20.916;2023-08-08T10:05:53;4.55;;;1.58;;
21777;SDS011;11050;52.222;20.916;2023-08-08T10:08:19;3.78;;;1.65;;
21777;SDS011;11050;52.222;20.916;2023-08-08T10:10:46;6.00;;;1.70;;
21777;SDS011;11050;52.222;20.916;2023-08-08T10:13:22;3.67;;;1.63;;
21777;SDS011;11050;52.222;20.916;2023-08-08T10:15:50;4.35;;;1.95;;
21777;SDS011;11050;52.222;20.916;2023-08-08T10:18:18;6.93;;;1.83;;
21777;SDS011;11050;52.222;20.916;2023-08-08T10:20:47;2.95;;;1.50;;
21777;SDS011;11050;52.222;20.916;2023-08-08T10:23:15;3.83;;;1.42;;
21777;SDS011;11050;52.222;20.916;2023-08-08T10:25:50;4.07;;;1.90;;
21777;SDS011;11050;52.222;20.916;2023-08-08T10:28:18;6.97;;;1.58;;
21777;SDS011;11050;52.222;20.916;2023-08-08T10:30:47;6.63;;;1.90;;
21777;SDS011;11050;52.222;20.916;2023-08-08T10:33:19;3.58;;;1.25;;
21777;SDS011;11050;52.222;20.916;2023-08-08T10:35:51;8.63;;;1.40;;
21777;SDS011;11050;52.222;20.916;2023-08-08T10:38:27;6.38;;;1.27;;
21777;SDS011;11050;52.222;20.916;2023-08-08T10:41:08;4.55;;;1.42;;
21777;SDS011;11050;52.222;20.916;2023-08-08T10:43:47;3.17;;;1.50;;
21777;SDS011;11050;52.222;20.916;2023-08-08T10:46:31;1.48;;;1.13;;
21777;SDS011;11050;52.222;20.916;2023-08-08T10:49:02;5.43;;;1.75;;
21777;SDS011;11050;52.222;20.916;2023-08-08T10:51:37;8.48;;;1.88;;
21777;SDS011;11050;52.222;20.916;2023-08-08T10:54:15;5.15;;;1.52;;
21777;SDS011;11050;52.222;20.916;2023-08-08T10:56:56;3.28;;;1.55;;
21777;SDS011;11050;52.222;20.916;2023-08-08T10:59:25;2.47;;;1.60;;
21777;SDS011;11050;52.222;20.916;2023-08-08T11:02:01;5.28;;;1.30;;
21777;SDS011;11050;52.222;20.916;2023-08-08T11:04:28;7.30;;;1.48;;
21777;SDS011;11050;52.222;20.916;2023-08-08T11:06:56;2.50;;;0.90;;
21777;SDS011;11050;52.222;20.916;2023-08-08T11:09:22;5.50;;;1.40;;
21777;SDS011;11050;52.222;20.916;2023-08-08T11:11:49;7.03;;;2.08;;
21777;SDS011;11050;52.222;20.916;2023-08-08T11:16:43;3.55;;;0.90;;
21777;SDS011;11050;52.222;20.916;2023-08-08T11:19:12;3.90;;;1.48;;
21777;SDS011;11050;52.222;20.916;2023-08-08T11:21:40;4.15;;;1.15;;
21777;SDS011;11050;52.222;20.916;2023-08-08T11:24:08;3.17;;;1.25;;
21777;SDS011;11050;52.222;20.916;2023-08-08T11:26:35;3.42;;;1.13;;
21777;SDS011;11050;52.222;20.916;2023-08-08T11:29:04;4.20;;;1.58;;
21777;SDS011;11050;52.222;20.916;2023-08-08T11:31:31;5.65;;;1.55;;
21777;SDS011;11050;52.222;20.916;2023-08-08T11:33:59;4.05;;;1.38;;
21777;SDS011;11050;52.222;20.916;2023-08-08T11:36:26;3.38;;;1.20;;
21777;SDS011;11050;52.222;20.916;2023-08-08T11:38:57;4.50;;;0.95;;
21777;SDS011;11050;52.222;20.916;2023-08-08T11:41:36;3.97;;;1.33;;
21777;SDS011;11050;52.222;20.916;2023-08-08T11:44:04;5.60;;;0.98;;
21777;SDS011;11050;52.222;20.916;2023-08-08T11:46:32;3.17;;;1.20;;
21777;SDS011;11050;52.222;20.916;2023-08-08T11:49:04;2.47;;;1.30;;
21777;SDS011;11050;52.222;20.916;2023-08-08T11:51:32;3.65;;;1.20;;
21777;SDS011;11050;52.222;20.916;2023-08-08T11:54:00;2.97;;;1.20;;
21777;SDS011;11050;52.222;20.916;2023-08-08T11:56:34;1.98;;;1.15;;
21777;SDS011;11050;52.222;20.916;2023-08-08T11:59:01;3.25;;;1.20;;
21777;SDS011;11050;52.222;20.916;2023-08-08T12:01:27;2.95;;;1.20;;
21777;SDS011;11050;52.222;20.916;2023-08-08T12:03:56;2.00;;;1.23;;
21777;SDS011;11050;52.222;20.916;2023-08-08T12:06:22;2.25;;;1.23;;
21777;SDS011;11050;52.222;20.916;2023-08-08T12:08:53;8.43;;;1.25;;
21777;SDS011;11050;52.222;20.916;2023-08-08T12:11:21;2.85;;;1.38;;
21777;SDS011;11050;52.222;20.916;2023-08-08T12:13:46;4.78;;;1.20;;
21777;SDS011;11050;52.222;20.916;2023-08-08T12:16:13;3.42;;;1.15;;
21777;SDS011;11050;52.222;20.916;2023-08-08T12:18:40;1.77;;;1.30;;
21777;SDS011;11050;52.222;20.916;2023-08-08T12:21:07;2.90;;;1.10;;
21777;SDS011;11050;52.222;20.916;2023-08-08T12:23:34;1.85;;;1.10;;
21777;SDS011;11050;52.222;20.916;2023-08-08T12:26:05;3.70;;;1.25;;
21777;SDS011;11050;52.222;20.916;2023-08-08T12:28:32;4.78;;;1.15;;
21777;SDS011;11050;52.222;20.916;2023-08-08T12:30:58;4.43;;;1.30;;
21777;SDS011;11050;52.222;20.916;2023-08-08T12:33:25;5.72;;;1.17;;
21777;SDS011;11050;52.222;20.916;2023-08-08T12:35:50;2.45;;;1.20;;
21777;SDS011;11050;52.222;20.916;2023-08-08T12:38:16;2.35;;;1.10;;
21777;SDS011;11050;52.222;20.916;2023-08-08T12:40:42;3.92;;;1.10;;
21777;SDS011;11050;52.222;20.916;2023-08-08T12:43:09;5.35;;;1.10;;
21777;SDS011;11050;52.222;20.916;2023-08-08T12:45:42;7.03;;;1.30;;
21777;SDS011;11050;52.222;20.916;2023-08-08T12:48:10;1.67;;;1.00;;
21777;SDS011;11050;52.222;20.916;2023-08-08T12:50:36;3.38;;;1.40;;
21777;SDS011;11050;52.222;20.916;2023-08-08T12:53:02;4.50;;;1.33;;
21777;SDS011;11050;52.222;20.916;2023-08-08T12:55:29;3.70;;;1.02;;
21777;SDS011;11050;52.222;20.916;2023-08-08T12:57:55;2.10;;;1.42;;
21777;SDS011;11050;52.222;20.916;2023-08-08T13:00:21;4.32;;;1.35;;
21777;SDS011;11050;52.222;20.916;2023-08-08T13:02:48;1.48;;;1.10;;
21777;SDS011;11050;52.222;20.916;2023-08-08T13:05:14;3.92;;;1.30;;
21777;SDS011;11050;52.222;20.916;2023-08-08T13:07:40;2.05;;;1.13;;
21777;SDS011;11050;52.222;20.916;2023-08-08T13:10:06;3.05;;;1.17;;
21777;SDS011;11050;52.222;20.916;2023-08-08T13:12:32;3.35;;;1.23;;
21777;SDS011;11050;52.222;20.916;2023-08-08T13:14:58;2.65;;;0.80;;
21777;SDS011;11050;52.222;20.916;2023-08-08T13:17:24;3.28;;;1.17;;
21777;SDS011;11050;52.222;20.916;2023-08-08T13:19:50;3.83;;;1.15;;
21777;SDS011;11050;52.222;20.916;2023-08-08T13:22:16;1.83;;;1.40;;
21777;SDS011;11050;52.222;20.916;2023-08-08T13:24:41;4.13;;;1.13;;
21777;SDS011;11050;52.222;20.916;2023-08-08T13:27:07;1.58;;;1.23;;
21777;SDS011;11050;52.222;20.916;2023-08-08T13:29:33;2.40;;;1.13;;
21777;SDS011;11050;52.222;20.916;2023-08-08T13:31:59;1.45;;;0.98;;
21777;SDS011;11050;52.222;20.916;2023-08-08T13:34:24;7.75;;;1.40;;
21777;SDS011;11050;52.222;20.916;2023-08-08T13:36:50;11.27;;;1.77;;
21777;SDS011;11050;52.222;20.916;2023-08-08T13:39:16;6.28;;;1.30;;
21777;SDS011;11050;52.222;20.916;2023-08-08T13:41:41;2.08;;;1.15;;
21777;SDS011;11050;52.222;20.916;2023-08-08T13:44:07;2.80;;;1.00;;
21777;SDS011;11050;52.222;20.916;2023-08-08T13:46:34;3.25;;;1.30;;
21777;SDS011;11050;52.222;20.916;2023-08-08T13:48:59;3.20;;;1.13;;
21777;SDS011;11050;52.222;20.916;2023-08-08T13:51:25;4.93;;;1.30;;
21777;SDS011;11050;52.222;20.916;2023-08-08T13:53:51;3.30;;;1.10;;
21777;SDS011;11050;52.222;20.916;2023-08-08T13:56:17;3.92;;;1.20;;
21777;SDS011;11050;52.222;20.916;2023-08-08T13:58:43;3.65;;;1.20;;
21777;SDS011;11050;52.222;20.916;2023-08-08T14:01:09;3.67;;;1.08;;
21777;SDS011;11050;52.222;20.916;2023-08-08T14:03:34;5.38;;;1.52;;
21777;SDS011;11050;52.222;20.916;2023-08-08T14:06:00;3.58;;;1.30;;
21777;SDS011;11050;52.222;20.916;2023-08-08T14:08:26;1.77;;;1.00;;
21777;SDS011;11050;52.222;20.916;2023-08-08T14:10:53;4.38;;;1.52;;
21777;SDS011;11050;52.222;20.916;2023-08-08T14:13:19;5.70;;;1.80;;
21777;SDS011;11050;52.222;20.916;2023-08-08T14:15:46;4.25;;;1.50;;
21777;SDS011;11050;52.222;20.916;2023-08-08T14:18:13;2.15;;;1.10;;
21777;SDS011;11050;52.222;20.916;2023-08-08T14:20:38;4.00;;;1.35;;
21777;SDS011;11050;52.222;20.916;2023-08-08T14:23:04;2.28;;;1.30;;
21777;SDS011;11050;52.222;20.916;2023-08-08T14:25:30;2.10;;;1.20;;
21777;SDS011;11050;52.222;20.916;2023-08-08T14:27:57;4.25;;;1.23;;
21777;SDS011;11050;52.222;20.916;2023-08-08T14:30:23;3.95;;;1.20;;
21777;SDS011;11050;52.222;20.916;2023-08-08T14:32:52;3.88;;;2.17;;
21777;SDS011;11050;52.222;20.916;2023-08-08T14:35:19;2.05;;;1.30;;